sensor_id;sensor_type;location;lat;lon;timestamp;P1;durP1;ratioP1;P2;durP2;ratioP2
8421;SDS011;4248;48.196;10.924;2023-04-29T00:01:14;2.90;;;1.80;;
8421;SDS011;4248;48.196;10.924;2023-04-29T00:03:39;2.87;;;1.90;;
8421;SDS011;4248;48.196;10.924;2023-04-29T00:06:05;3.80;;;2.00;;
8421;SDS011;4248;48.196;10.924;2023-04-29T00:08:31;4.37;;;2.30;;
8421;SDS011;4248;48.196;10.924;2023-04-29T00:10:56;3.50;;;2.03;;
8421;SDS011;4248;48.196;10.924;2023-04-29T00:13:23;2.63;;;1.83;;
8421;SDS011;4248;48.196;10.924;2023-04-29T00:15:48;5.97;;;1.77;;
8421;SDS011;4248;48.196;10.924;2023-04-29T00:18:14;2.70;;;1.57;;
8421;SDS011;4248;48.196;10.924;2023-04-29T00:20:40;6.17;;;2.90;;
8421;SDS011;4248;48.196;10.924;2023-04-29T00:23:07;4.57;;;2.40;;
8421;SDS011;4248;48.196;10.924;2023-04-29T00:25:33;4.70;;;2.63;;
8421;SDS011;4248;48.196;10.924;2023-04-29T00:27:59;4.77;;;2.57;;
8421;SDS011;4248;48.196;10.924;2023-04-29T00:30:26;6.17;;;3.43;;
8421;SDS011;4248;48.196;10.924;2023-04-29T00:32:52;9.13;;;2.80;;
8421;SDS011;4248;48.196;10.924;2023-04-29T00:35:19;4.83;;;3.20;;
8421;SDS011;4248;48.196;10.924;2023-04-29T00:37:45;4.90;;;2.60;;
8421;SDS011;4248;48.196;10.924;2023-04-29T00:40:10;6.40;;;3.07;;
8421;SDS011;4248;48.196;10.924;2023-04-29T00:42:39;4.67;;;3.27;;
8421;SDS011;4248;48.196;10.924;2023-04-29T00:45:05;6.43;;;3.33;;
8421;SDS011;4248;48.196;10.924;2023-04-29T00:47:31;5.97;;;3.40;;
8421;SDS011;4248;48.196;10.924;2023-04-29T00:49:57;7.40;;;3.90;;
8421;SDS011;4248;48.196;10.924;2023-04-29T00:52:23;6.53;;;3.30;;
8421;SDS011;4248;48.196;10.924;2023-04-29T00:54:49;4.13;;;3.30;;
8421;SDS011;4248;48.196;10.924;2023-04-29T00:57:16;3.47;;;2.70;;
8421;SDS011;4248;48.196;10.924;2023-04-29T00:59:43;5.40;;;3.33;;
8421;SDS011;4248;48.196;10.924;2023-04-29T01:02:10;3.30;;;2.40;;
8421;SDS011;4248;48.196;10.924;2023-04-29T01:04:36;6.07;;;3.17;;
8421;SDS011;4248;48.196;10.924;2023-04-29T01:07:14;5.30;;;3.23;;
8421;SDS011;4248;48.196;10.924;2023-04-29T01:17:58;4.80;;;3.50;;
8421;SDS011;4248;48.196;10.924;2023-04-29T01:20:39;5.13;;;3.90;;
8421;SDS011;4248;48.196;10.924;2023-04-29T01:23:06;4.83;;;3.70;;
8421;SDS011;4248;48.196;10.924;2023-04-29T01:25:31;7.73;;;4.57;;
8421;SDS011;4248;48.196;10.924;2023-04-29T01:36:07;6.90;;;4.03;;
8421;SDS011;4248;48.196;10.924;2023-04-29T01:41:44;8.90;;;4.50;;
8421;SDS011;4248;48.196;10.924;2023-04-29T01:44:22;6.13;;;4.10;;
8421;SDS011;4248;48.196;10.924;2023-04-29T01:46:51;7.87;;;4.93;;
8421;SDS011;4248;48.196;10.924;2023-04-29T01:49:24;6.33;;;4.83;;
8421;SDS011;4248;48.196;10.924;2023-04-29T01:51:50;11.40;;;4.57;;
8421;SDS011;4248;48.196;10.924;2023-04-29T01:54:16;9.23;;;5.20;;
8421;SDS011;4248;48.196;10.924;2023-04-29T01:56:42;9.20;;;5.10;;
8421;SDS011;4248;48.196;10.924;2023-04-29T01:59:08;8.67;;;5.50;;
8421;SDS011;4248;48.196;10.924;2023-04-29T02:01:33;8.67;;;5.93;;
8421;SDS011;4248;48.196;10.924;2023-04-29T02:03:59;7.50;;;5.10;;
8421;SDS011;4248;48.196;10.924;2023-04-29T02:06:25;12.23;;;5.37;;
8421;SDS011;4248;48.196;10.924;2023-04-29T02:08:50;8.23;;;5.37;;
8421;SDS011;4248;48.196;10.924;2023-04-29T02:11:16;9.87;;;6.40;;
8421;SDS011;4248;48.196;10.924;2023-04-29T02:13:42;7.90;;;5.43;;
8421;SDS011;4248;48.196;10.924;2023-04-29T02:16:11;12.63;;;5.57;;
8421;SDS011;4248;48.196;10.924;2023-04-29T02:18:38;8.50;;;5.37;;
8421;SDS011;4248;48.196;10.924;2023-04-29T02:21:04;14.10;;;5.20;;
8421;SDS011;4248;48.196;10.924;2023-04-29T02:23:30;9.53;;;5.00;;
8421;SDS011;4248;48.196;10.924;2023-04-29T02:25:56;11.37;;;4.80;;
8421;SDS011;4248;48.196;10.924;2023-04-29T02:28:22;8.20;;;5.07;;
8421;SDS011;4248;48.196;10.924;2023-04-29T02:30:47;9.40;;;5.13;;
8421;SDS011;4248;48.196;10.924;2023-04-29T02:33:14;9.17;;;5.27;;
8421;SDS011;4248;48.196;10.924;2023-04-29T02:35:40;6.90;;;5.00;;
8421;SDS011;4248;48.196;10.924;2023-04-29T02:38:06;8.93;;;5.27;;
8421;SDS011;4248;48.196;10.924;2023-04-29T02:40:31;6.93;;;5.13;;
8421;SDS011;4248;48.196;10.924;2023-04-29T02:42:57;11.10;;;5.40;;
8421;SDS011;4248;48.196;10.924;2023-04-29T02:45:23;7.33;;;5.30;;
8421;SDS011;4248;48.196;10.924;2023-04-29T02:47:48;9.83;;;5.30;;
8421;SDS011;4248;48.196;10.924;2023-04-29T02:50:14;8.43;;;5.20;;
8421;SDS011;4248;48.196;10.924;2023-04-29T02:52:40;11.77;;;5.93;;
8421;SDS011;4248;48.196;10.924;2023-04-29T02:55:08;9.73;;;5.60;;
8421;SDS011;4248;48.196;10.924;2023-04-29T02:57:34;10.07;;;5.63;;
8421;SDS011;4248;48.196;10.924;2023-04-29T02:59:59;12.30;;;5.30;;
8421;SDS011;4248;48.196;10.924;2023-04-29T03:02:26;8.30;;;5.53;;
8421;SDS011;4248;48.196;10.924;2023-04-29T03:04:51;10.67;;;5.10;;
8421;SDS011;4248;48.196;10.924;2023-04-29T03:07:17;9.90;;;6.30;;
8421;SDS011;4248;48.196;10.924;2023-04-29T03:09:42;11.03;;;6.30;;
8421;SDS011;4248;48.196;10.924;2023-04-29T03:12:08;10.27;;;6.57;;
8421;SDS011;4248;48.196;10.924;2023-04-29T03:14:34;12.10;;;7.10;;
8421;SDS011;4248;48.196;10.924;2023-04-29T03:17:00;11.30;;;7.13;;
8421;SDS011;4248;48.196;10.924;2023-04-29T03:19:26;11.23;;;7.33;;
8421;SDS011;4248;48.196;10.924;2023-04-29T03:21:51;11.10;;;7.60;;
8421;SDS011;4248;48.196;10.924;2023-04-29T03:24:17;12.13;;;6.83;;
8421;SDS011;4248;48.196;10.924;2023-04-29T03:26:42;9.13;;;5.87;;
8421;SDS011;4248;48.196;10.924;2023-04-29T03:29:08;11.10;;;6.27;;
8421;SDS011;4248;48.196;10.924;2023-04-29T03:31:34;10.47;;;6.60;;
8421;SDS011;4248;48.196;10.924;2023-04-29T03:33:59;11.43;;;6.87;;
8421;SDS011;4248;48.196;10.924;2023-04-29T03:36:25;11.63;;;7.23;;
8421;SDS011;4248;48.196;10.924;2023-04-29T03:38:51;10.43;;;7.10;;
8421;SDS011;4248;48.196;10.924;2023-04-29T03:41:17;14.33;;;7.67;;
8421;SDS011;4248;48.196;10.924;2023-04-29T03:43:43;12.87;;;7.10;;
8421;SDS011;4248;48.196;10.924;2023-04-29T03:46:09;12.60;;;7.23;;
8421;SDS011;4248;48.196;10.924;2023-04-29T03:48:34;13.60;;;6.50;;
8421;SDS011;4248;48.196;10.924;2023-04-29T03:51:01;15.60;;;7.00;;
8421;SDS011;4248;48.196;10.924;2023-04-29T03:53:26;11.90;;;7.27;;
8421;SDS011;4248;48.196;10.924;2023-04-29T03:55:52;14.27;;;7.57;;
8421;SDS011;4248;48.196;10.924;2023-04-29T03:58:18;13.97;;;7.50;;
8421;SDS011;4248;48.196;10.924;2023-04-29T04:00:43;15.97;;;7.93;;
8421;SDS011;4248;48.196;10.924;2023-04-29T04:03:09;14.07;;;7.70;;
8421;SDS011;4248;48.196;10.924;2023-04-29T04:05:35;14.80;;;7.90;;
8421;SDS011;4248;48.196;10.924;2023-04-29T04:08:01;14.97;;;8.90;;
8421;SDS011;4248;48.196;10.924;2023-04-29T04:10:26;15.50;;;8.57;;
8421;SDS011;4248;48.196;10.924;2023-04-29T04:12:52;18.33;;;9.30;;
8421;SDS011;4248;48.196;10.924;2023-04-29T04:15:18;20.90;;;11.70;;
8421;SDS011;4248;48.196;10.924;2023-04-29T04:17:43;21.83;;;11.57;;
8421;SDS011;4248;48.196;10.924;2023-04-29T04:20:09;23.93;;;12.33;;
8421;SDS011;4248;48.196;10.924;2023-04-29T04:22:35;35.33;;;15.40;;
8421;SDS011;4248;48.196;10.924;2023-04-29T04:25:02;29.97;;;14.27;;
8421;SDS011;4248;48.196;10.924;2023-04-29T04:27:28;34.60;;;13.60;;
8421;SDS011;4248;48.196;10.924;2023-04-29T04:29:54;23.33;;;12.87;;
8421;SDS011;4248;48.196;10.924;2023-04-29T04:32:20;22.87;;;12.30;;
8421;SDS011;4248;48.196;10.924;2023-04-29T04:34:47;18.83;;;12.87;;
8421;SDS011;4248;48.196;10.924;2023-04-29T04:37:13;23.60;;;12.90;;
8421;SDS011;4248;48.196;10.924;2023-04-29T04:39:39;27.27;;;13.23;;
8421;SDS011;4248;48.196;10.924;2023-04-29T04:42:04;23.57;;;13.77;;
8421;SDS011;4248;48.196;10.924;2023-04-29T04:44:30;25.37;;;14.00;;
8421;SDS011;4248;48.196;10.924;2023-04-29T04:46:56;24.53;;;13.30;;
8421;SDS011;4248;48.196;10.924;2023-04-29T04:49:22;26.90;;;13.93;;
8421;SDS011;4248;48.196;10.924;2023-04-29T04:51:51;29.27;;;14.10;;
8421;SDS011;4248;48.196;10.924;2023-04-29T04:54:17;28.47;;;13.80;;
8421;SDS011;4248;48.196;10.924;2023-04-29T04:56:43;25.93;;;13.90;;
8421;SDS011;4248;48.196;10.924;2023-04-29T04:59:08;30.33;;;14.80;;
8421;SDS011;4248;48.196;10.924;2023-04-29T05:01:34;32.50;;;16.03;;
8421;SDS011;4248;48.196;10.924;2023-04-29T05:04:00;25.10;;;13.93;;
8421;SDS011;4248;48.196;10.924;2023-04-29T05:06:26;26.30;;;14.20;;
8421;SDS011;4248;48.196;10.924;2023-04-29T05:08:52;24.20;;;14.83;;
8421;SDS011;4248;48.196;10.924;2023-04-29T05:11:20;29.70;;;15.80;;
8421;SDS011;4248;48.196;10.924;2023-04-29T05:13:46;29.00;;;15.63;;
8421;SDS011;4248;48.196;10.924;2023-04-29T05:16:12;24.60;;;13.80;;
8421;SDS011;4248;48.196;10.924;2023-04-29T05:18:38;27.23;;;14.80;;
8421;SDS011;4248;48.196;10.924;2023-04-29T05:21:04;22.90;;;13.63;;
8421;SDS011;4248;48.196;10.924;2023-04-29T05:23:29;30.23;;;13.60;;
8421;SDS011;4248;48.196;10.924;2023-04-29T05:25:55;23.53;;;12.17;;
8421;SDS011;4248;48.196;10.924;2023-04-29T05:28:21;18.83;;;11.77;;
8421;SDS011;4248;48.196;10.924;2023-04-29T05:30:49;17.70;;;11.50;;
8421;SDS011;4248;48.196;10.924;2023-04-29T05:33:15;15.97;;;11.10;;
8421;SDS011;4248;48.196;10.924;2023-04-29T05:35:41;19.83;;;12.40;;
8421;SDS011;4248;48.196;10.924;2023-04-29T05:38:07;18.73;;;11.80;;
8421;SDS011;4248;48.196;10.924;2023-04-29T05:40:32;17.03;;;10.73;;
8421;SDS011;4248;48.196;10.924;2023-04-29T05:42:58;16.70;;;10.93;;
8421;SDS011;4248;48.196;10.924;2023-04-29T05:45:24;16.27;;;9.80;;
8421;SDS011;4248;48.196;10.924;2023-04-29T05:47:49;11.67;;;9.10;;
8421;SDS011;4248;48.196;10.924;2023-04-29T05:50:15;16.10;;;10.50;;
8421;SDS011;4248;48.196;10.924;2023-04-29T05:52:41;13.40;;;8.70;;
8421;SDS011;4248;48.196;10.924;2023-04-29T05:55:07;11.83;;;9.10;;
8421;SDS011;4248;48.196;10.924;2023-04-29T05:57:32;12.60;;;8.20;;
8421;SDS011;4248;48.196;10.924;2023-04-29T05:59:58;10.40;;;7.63;;
8421;SDS011;4248;48.196;10.924;2023-04-29T06:02:24;9.23;;;6.50;;
8421;SDS011;4248;48.196;10.924;2023-04-29T06:04:50;12.40;;;7.40;;
8421;SDS011;4248;48.196;10.924;2023-04-29T06:07:16;7.57;;;5.90;;
8421;SDS011;4248;48.196;10.924;2023-04-29T06:09:42;8.73;;;6.27;;
8421;SDS011;4248;48.196;10.924;2023-04-29T06:12:08;10.57;;;6.20;;
8421;SDS011;4248;48.196;10.924;2023-04-29T06:14:34;8.93;;;5.93;;
8421;SDS011;4248;48.196;10.924;2023-04-29T06:16:59;8.73;;;6.23;;
8421;SDS011;4248;48.196;10.924;2023-04-29T06:19:26;8.60;;;6.17;;
8421;SDS011;4248;48.196;10.924;2023-04-29T06:21:51;6.87;;;5.23;;
8421;SDS011;4248;48.196;10.924;2023-04-29T06:24:17;7.43;;;4.80;;
8421;SDS011;4248;48.196;10.924;2023-04-29T06:26:42;7.53;;;4.90;;
8421;SDS011;4248;48.196;10.924;2023-04-29T06:29:08;8.70;;;4.90;;
8421;SDS011;4248;48.196;10.924;2023-04-29T06:31:34;10.10;;;5.30;;
8421;SDS011;4248;48.196;10.924;2023-04-29T06:33:59;7.77;;;5.10;;
8421;SDS011;4248;48.196;10.924;2023-04-29T06:36:25;10.17;;;5.50;;
8421;SDS011;4248;48.196;10.924;2023-04-29T06:38:52;7.10;;;5.53;;
8421;SDS011;4248;48.196;10.924;2023-04-29T06:41:17;8.90;;;6.10;;
8421;SDS011;4248;48.196;10.924;2023-04-29T06:43:43;10.93;;;6.10;;
8421;SDS011;4248;48.196;10.924;2023-04-29T06:46:09;8.10;;;5.90;;
8421;SDS011;4248;48.196;10.924;2023-04-29T06:48:34;8.30;;;5.90;;
8421;SDS011;4248;48.196;10.924;2023-04-29T06:51:01;13.40;;;6.10;;
8421;SDS011;4248;48.196;10.924;2023-04-29T06:53:26;6.50;;;5.20;;
8421;SDS011;4248;48.196;10.924;2023-04-29T06:55:52;8.77;;;5.70;;
8421;SDS011;4248;48.196;10.924;2023-04-29T06:58:18;7.00;;;5.30;;
8421;SDS011;4248;48.196;10.924;2023-04-29T07:00:44;6.70;;;5.07;;
8421;SDS011;4248;48.196;10.924;2023-04-29T07:03:11;5.80;;;4.73;;
8421;SDS011;4248;48.196;10.924;2023-04-29T07:05:37;6.90;;;4.93;;
8421;SDS011;4248;48.196;10.924;2023-04-29T07:08:10;14.00;;;5.13;;
8421;SDS011;4248;48.196;10.924;2023-04-29T07:10:36;7.10;;;4.70;;
8421;SDS011;4248;48.196;10.924;2023-04-29T07:13:02;7.20;;;5.80;;
8421;SDS011;4248;48.196;10.924;2023-04-29T07:15:28;8.43;;;5.50;;
8421;SDS011;4248;48.196;10.924;2023-04-29T07:17:55;7.13;;;4.57;;
8421;SDS011;4248;48.196;10.924;2023-04-29T07:20:21;6.97;;;5.20;;
8421;SDS011;4248;48.196;10.924;2023-04-29T07:22:46;7.33;;;5.00;;
8421;SDS011;4248;48.196;10.924;2023-04-29T07:25:12;8.60;;;5.10;;
8421;SDS011;4248;48.196;10.924;2023-04-29T07:27:38;7.80;;;5.00;;
8421;SDS011;4248;48.196;10.924;2023-04-29T07:30:04;4.80;;;3.73;;
8421;SDS011;4248;48.196;10.924;2023-04-29T07:32:30;6.00;;;4.43;;
8421;SDS011;4248;48.196;10.924;2023-04-29T07:34:57;7.80;;;5.03;;
8421;SDS011;4248;48.196;10.924;2023-04-29T07:37:22;4.90;;;3.83;;
8421;SDS011;4248;48.196;10.924;2023-04-29T07:39:48;6.90;;;4.10;;
8421;SDS011;4248;48.196;10.924;2023-04-29T07:42:14;8.20;;;3.77;;
8421;SDS011;4248;48.196;10.924;2023-04-29T07:44:40;7.40;;;3.67;;
8421;SDS011;4248;48.196;10.924;2023-04-29T07:47:05;6.00;;;3.73;;
8421;SDS011;4248;48.196;10.924;2023-04-29T07:49:31;5.27;;;3.10;;
8421;SDS011;4248;48.196;10.924;2023-04-29T07:51:56;7.20;;;3.50;;
8421;SDS011;4248;48.196;10.924;2023-04-29T07:54:22;6.13;;;3.40;;
8421;SDS011;4248;48.196;10.924;2023-04-29T07:56:48;5.13;;;3.30;;
8421;SDS011;4248;48.196;10.924;2023-04-29T07:59:14;5.60;;;3.70;;
8421;SDS011;4248;48.196;10.924;2023-04-29T08:01:40;5.27;;;3.70;;
8421;SDS011;4248;48.196;10.924;2023-04-29T08:04:06;4.43;;;3.30;;
8421;SDS011;4248;48.196;10.924;2023-04-29T08:06:32;4.93;;;3.53;;
8421;SDS011;4248;48.196;10.924;2023-04-29T08:08:57;4.63;;;3.27;;
8421;SDS011;4248;48.196;10.924;2023-04-29T08:11:23;5.23;;;2.70;;
8421;SDS011;4248;48.196;10.924;2023-04-29T08:13:50;4.20;;;2.80;;
8421;SDS011;4248;48.196;10.924;2023-04-29T08:16:16;5.13;;;2.80;;
8421;SDS011;4248;48.196;10.924;2023-04-29T08:18:42;5.43;;;2.50;;
8421;SDS011;4248;48.196;10.924;2023-04-29T08:21:08;3.20;;;1.97;;
8421;SDS011;4248;48.196;10.924;2023-04-29T08:23:35;4.83;;;2.20;;
8421;SDS011;4248;48.196;10.924;2023-04-29T08:26:01;3.93;;;2.60;;
8421;SDS011;4248;48.196;10.924;2023-04-29T08:28:27;5.23;;;2.80;;
8421;SDS011;4248;48.196;10.924;2023-04-29T08:30:53;4.73;;;2.43;;
8421;SDS011;4248;48.196;10.924;2023-04-29T08:33:19;5.70;;;2.67;;
8421;SDS011;4248;48.196;10.924;2023-04-29T08:35:45;3.73;;;2.30;;
8421;SDS011;4248;48.196;10.924;2023-04-29T08:38:10;13.13;;;2.10;;
8421;SDS011;4248;48.196;10.924;2023-04-29T08:40:43;4.83;;;2.43;;
8421;SDS011;4248;48.196;10.924;2023-04-29T08:43:11;6.53;;;2.40;;
8421;SDS011;4248;48.196;10.924;2023-04-29T08:45:39;4.43;;;2.03;;
8421;SDS011;4248;48.196;10.924;2023-04-29T08:48:06;2.87;;;1.93;;
8421;SDS011;4248;48.196;10.924;2023-04-29T08:50:39;4.23;;;1.90;;
8421;SDS011;4248;48.196;10.924;2023-04-29T08:53:09;3.90;;;2.03;;
8421;SDS011;4248;48.196;10.924;2023-04-29T08:55:43;4.73;;;2.10;;
8421;SDS011;4248;48.196;10.924;2023-04-29T08:58:10;4.30;;;2.27;;
8421;SDS011;4248;48.196;10.924;2023-04-29T09:00:37;9.07;;;2.30;;
8421;SDS011;4248;48.196;10.924;2023-04-29T09:03:49;4.77;;;2.30;;
8421;SDS011;4248;48.196;10.924;2023-04-29T09:05:56;3.00;;;1.90;;
8421;SDS011;4248;48.196;10.924;2023-04-29T09:08:24;3.30;;;1.83;;
8421;SDS011;4248;48.196;10.924;2023-04-29T09:10:51;3.50;;;2.10;;
8421;SDS011;4248;48.196;10.924;2023-04-29T09:13:24;3.00;;;2.20;;
8421;SDS011;4248;48.196;10.924;2023-04-29T09:15:53;5.10;;;2.00;;
8421;SDS011;4248;48.196;10.924;2023-04-29T09:21:25;3.30;;;2.13;;
8421;SDS011;4248;48.196;10.924;2023-04-29T09:23:52;3.67;;;2.20;;
8421;SDS011;4248;48.196;10.924;2023-04-29T09:26:22;3.80;;;1.80;;
8421;SDS011;4248;48.196;10.924;2023-04-29T09:29:07;2.70;;;1.50;;
8421;SDS011;4248;48.196;10.924;2023-04-29T09:31:37;4.20;;;1.70;;
8421;SDS011;4248;48.196;10.924;2023-04-29T09:34:04;3.83;;;1.73;;
8421;SDS011;4248;48.196;10.924;2023-04-29T09:39:09;3.00;;;1.97;;
8421;SDS011;4248;48.196;10.924;2023-04-29T09:44:25;10.37;;;1.83;;
8421;SDS011;4248;48.196;10.924;2023-04-29T09:46:56;3.90;;;1.80;;
8421;SDS011;4248;48.196;10.924;2023-04-29T09:49:27;3.80;;;2.03;;
8421;SDS011;4248;48.196;10.924;2023-04-29T09:51:55;5.50;;;2.00;;
8421;SDS011;4248;48.196;10.924;2023-04-29T09:54:23;5.57;;;2.13;;
8421;SDS011;4248;48.196;10.924;2023-04-29T09:56:50;5.53;;;2.17;;
8421;SDS011;4248;48.196;10.924;2023-04-29T09:59:17;5.57;;;1.93;;
8421;SDS011;4248;48.196;10.924;2023-04-29T10:01:45;3.53;;;2.37;;
8421;SDS011;4248;48.196;10.924;2023-04-29T10:04:15;4.87;;;2.37;;
8421;SDS011;4248;48.196;10.924;2023-04-29T10:06:43;6.80;;;1.90;;
8421;SDS011;4248;48.196;10.924;2023-04-29T10:09:13;3.43;;;1.80;;
8421;SDS011;4248;48.196;10.924;2023-04-29T10:11:45;4.20;;;1.60;;
8421;SDS011;4248;48.196;10.924;2023-04-29T10:14:14;4.40;;;1.83;;
8421;SDS011;4248;48.196;10.924;2023-04-29T10:16:44;3.60;;;1.50;;
8421;SDS011;4248;48.196;10.924;2023-04-29T10:19:22;3.93;;;1.50;;
8421;SDS011;4248;48.196;10.924;2023-04-29T10:21:52;2.80;;;1.30;;
8421;SDS011;4248;48.196;10.924;2023-04-29T10:24:22;4.03;;;1.97;;
8421;SDS011;4248;48.196;10.924;2023-04-29T10:26:50;3.10;;;1.47;;
8421;SDS011;4248;48.196;10.924;2023-04-29T10:29:17;3.17;;;1.70;;
8421;SDS011;4248;48.196;10.924;2023-04-29T10:31:43;5.60;;;1.67;;
8421;SDS011;4248;48.196;10.924;2023-04-29T10:34:12;5.40;;;1.63;;
8421;SDS011;4248;48.196;10.924;2023-04-29T10:36:40;3.10;;;1.57;;
8421;SDS011;4248;48.196;10.924;2023-04-29T10:39:07;3.50;;;1.90;;
8421;SDS011;4248;48.196;10.924;2023-04-29T10:41:41;3.07;;;1.60;;
8421;SDS011;4248;48.196;10.924;2023-04-29T10:44:12;2.87;;;1.43;;
8421;SDS011;4248;48.196;10.924;2023-04-29T10:46:38;2.90;;;1.60;;
8421;SDS011;4248;48.196;10.924;2023-04-29T10:49:04;2.30;;;1.30;;
8421;SDS011;4248;48.196;10.924;2023-04-29T10:56:47;3.20;;;1.50;;
8421;SDS011;4248;48.196;10.924;2023-04-29T10:59:21;7.53;;;1.70;;
8421;SDS011;4248;48.196;10.924;2023-04-29T11:02:06;2.83;;;1.40;;
8421;SDS011;4248;48.196;10.924;2023-04-29T11:04:33;4.43;;;1.40;;
8421;SDS011;4248;48.196;10.924;2023-04-29T11:06:59;3.03;;;1.60;;
8421;SDS011;4248;48.196;10.924;2023-04-29T11:09:27;2.23;;;1.20;;
8421;SDS011;4248;48.196;10.924;2023-04-29T11:17:11;2.70;;;1.30;;
8421;SDS011;4248;48.196;10.924;2023-04-29T11:19:46;4.80;;;1.40;;
8421;SDS011;4248;48.196;10.924;2023-04-29T11:24:55;7.80;;;1.47;;
8421;SDS011;4248;48.196;10.924;2023-04-29T11:27:25;2.20;;;1.20;;
8421;SDS011;4248;48.196;10.924;2023-04-29T11:29:55;5.07;;;1.53;;
8421;SDS011;4248;48.196;10.924;2023-04-29T11:32:26;7.93;;;1.53;;
8421;SDS011;4248;48.196;10.924;2023-04-29T11:34:52;3.20;;;1.30;;
8421;SDS011;4248;48.196;10.924;2023-04-29T11:37:19;2.80;;;1.33;;
8421;SDS011;4248;48.196;10.924;2023-04-29T11:39:49;6.30;;;1.70;;
8421;SDS011;4248;48.196;10.924;2023-04-29T11:42:19;2.90;;;1.60;;
8421;SDS011;4248;48.196;10.924;2023-04-29T11:44:46;2.57;;;1.30;;
8421;SDS011;4248;48.196;10.924;2023-04-29T11:47:15;3.63;;;1.50;;
8421;SDS011;4248;48.196;10.924;2023-04-29T11:49:40;3.93;;;1.50;;
8421;SDS011;4248;48.196;10.924;2023-04-29T11:52:06;2.80;;;1.70;;
8421;SDS011;4248;48.196;10.924;2023-04-29T11:54:32;6.00;;;1.67;;
8421;SDS011;4248;48.196;10.924;2023-04-29T11:56:58;2.70;;;1.30;;
8421;SDS011;4248;48.196;10.924;2023-04-29T11:59:24;2.67;;;1.43;;
8421;SDS011;4248;48.196;10.924;2023-04-29T12:01:51;4.33;;;1.40;;
8421;SDS011;4248;48.196;10.924;2023-04-29T12:04:17;2.80;;;1.50;;
8421;SDS011;4248;48.196;10.924;2023-04-29T12:06:43;3.17;;;1.50;;
8421;SDS011;4248;48.196;10.924;2023-04-29T12:09:10;2.60;;;1.20;;
8421;SDS011;4248;48.196;10.924;2023-04-29T12:11:36;2.67;;;1.17;;
8421;SDS011;4248;48.196;10.924;2023-04-29T12:14:02;2.73;;;1.43;;
8421;SDS011;4248;48.196;10.924;2023-04-29T12:16:30;2.60;;;1.37;;
8421;SDS011;4248;48.196;10.924;2023-04-29T12:18:57;3.40;;;1.40;;
8421;SDS011;4248;48.196;10.924;2023-04-29T12:21:23;2.13;;;1.10;;
8421;SDS011;4248;48.196;10.924;2023-04-29T12:23:50;2.70;;;1.37;;
8421;SDS011;4248;48.196;10.924;2023-04-29T12:26:16;3.33;;;1.50;;
8421;SDS011;4248;48.196;10.924;2023-04-29T12:28:45;7.13;;;1.80;;
8421;SDS011;4248;48.196;10.924;2023-04-29T12:31:13;3.70;;;1.43;;
8421;SDS011;4248;48.196;10.924;2023-04-29T12:33:41;2.10;;;1.03;;
8421;SDS011;4248;48.196;10.924;2023-04-29T12:36:16;3.00;;;1.10;;
8421;SDS011;4248;48.196;10.924;2023-04-29T12:38:43;3.53;;;1.20;;
8421;SDS011;4248;48.196;10.924;2023-04-29T12:41:09;4.00;;;1.20;;
8421;SDS011;4248;48.196;10.924;2023-04-29T12:43:37;2.30;;;1.10;;
8421;SDS011;4248;48.196;10.924;2023-04-29T12:46:03;3.23;;;1.23;;
8421;SDS011;4248;48.196;10.924;2023-04-29T12:48:30;2.60;;;1.10;;
8421;SDS011;4248;48.196;10.924;2023-04-29T12:50:57;2.10;;;1.00;;
8421;SDS011;4248;48.196;10.924;2023-04-29T12:53:24;2.20;;;1.10;;
8421;SDS011;4248;48.196;10.924;2023-04-29T12:55:51;4.47;;;1.30;;
8421;SDS011;4248;48.196;10.924;2023-04-29T12:58:17;2.00;;;1.00;;
8421;SDS011;4248;48.196;10.924;2023-04-29T13:00:43;2.90;;;1.30;;
8421;SDS011;4248;48.196;10.924;2023-04-29T13:03:09;4.37;;;1.10;;
8421;SDS011;4248;48.196;10.924;2023-04-29T13:05:35;3.30;;;1.23;;
8421;SDS011;4248;48.196;10.924;2023-04-29T13:08:00;4.23;;;1.03;;
8421;SDS011;4248;48.196;10.924;2023-04-29T13:10:26;4.50;;;1.40;;
8421;SDS011;4248;48.196;10.924;2023-04-29T13:12:52;2.33;;;1.20;;
8421;SDS011;4248;48.196;10.924;2023-04-29T13:15:18;5.07;;;1.37;;
8421;SDS011;4248;48.196;10.924;2023-04-29T13:17:45;6.53;;;1.70;;
8421;SDS011;4248;48.196;10.924;2023-04-29T13:20:11;3.30;;;1.40;;
8421;SDS011;4248;48.196;10.924;2023-04-29T13:22:37;3.80;;;2.13;;
8421;SDS011;4248;48.196;10.924;2023-04-29T13:25:03;3.60;;;1.00;;
8421;SDS011;4248;48.196;10.924;2023-04-29T13:27:29;2.90;;;1.03;;
8421;SDS011;4248;48.196;10.924;2023-04-29T13:29:55;2.73;;;1.20;;
8421;SDS011;4248;48.196;10.924;2023-04-29T13:32:21;2.27;;;1.03;;
8421;SDS011;4248;48.196;10.924;2023-04-29T13:34:51;4.43;;;1.37;;
8421;SDS011;4248;48.196;10.924;2023-04-29T13:37:17;2.50;;;1.30;;
8421;SDS011;4248;48.196;10.924;2023-04-29T13:39:46;2.47;;;1.40;;
8421;SDS011;4248;48.196;10.924;2023-04-29T13:42:12;3.03;;;1.20;;
8421;SDS011;4248;48.196;10.924;2023-04-29T13:44:38;2.20;;;1.10;;
8421;SDS011;4248;48.196;10.924;2023-04-29T13:47:08;3.27;;;1.50;;
8421;SDS011;4248;48.196;10.924;2023-04-29T13:49:40;2.30;;;1.10;;
8421;SDS011;4248;48.196;10.924;2023-04-29T13:52:08;2.00;;;0.90;;
8421;SDS011;4248;48.196;10.924;2023-04-29T13:54:34;2.10;;;1.10;;
8421;SDS011;4248;48.196;10.924;2023-04-29T13:57:00;2.33;;;1.13;;
8421;SDS011;4248;48.196;10.924;2023-04-29T13:59:29;2.37;;;1.07;;
8421;SDS011;4248;48.196;10.924;2023-04-29T14:01:56;3.30;;;1.13;;
8421;SDS011;4248;48.196;10.924;2023-04-29T14:04:22;2.20;;;1.10;;
8421;SDS011;4248;48.196;10.924;2023-04-29T14:06:48;3.07;;;1.23;;
8421;SDS011;4248;48.196;10.924;2023-04-29T14:09:14;2.50;;;0.97;;
8421;SDS011;4248;48.196;10.924;2023-04-29T14:11:40;2.00;;;1.00;;
8421;SDS011;4248;48.196;10.924;2023-04-29T14:14:06;3.50;;;1.40;;
8421;SDS011;4248;48.196;10.924;2023-04-29T14:16:32;3.13;;;1.30;;
8421;SDS011;4248;48.196;10.924;2023-04-29T14:18:57;2.57;;;1.20;;
8421;SDS011;4248;48.196;10.924;2023-04-29T14:21:23;3.23;;;1.60;;
8421;SDS011;4248;48.196;10.924;2023-04-29T14:23:49;2.27;;;1.10;;
8421;SDS011;4248;48.196;10.924;2023-04-29T14:26:14;4.77;;;1.20;;
8421;SDS011;4248;48.196;10.924;2023-04-29T14:28:40;2.70;;;1.10;;
8421;SDS011;4248;48.196;10.924;2023-04-29T14:31:06;2.50;;;1.13;;
8421;SDS011;4248;48.196;10.924;2023-04-29T14:33:32;2.80;;;1.63;;
8421;SDS011;4248;48.196;10.924;2023-04-29T14:35:57;2.00;;;1.00;;
8421;SDS011;4248;48.196;10.924;2023-04-29T14:38:24;2.90;;;1.20;;
8421;SDS011;4248;48.196;10.924;2023-04-29T14:40:50;2.53;;;1.10;;
8421;SDS011;4248;48.196;10.924;2023-04-29T14:43:16;2.30;;;1.00;;
8421;SDS011;4248;48.196;10.924;2023-04-29T14:45:42;2.80;;;1.40;;
8421;SDS011;4248;48.196;10.924;2023-04-29T14:48:09;2.63;;;1.20;;
8421;SDS011;4248;48.196;10.924;2023-04-29T14:50:35;2.97;;;1.20;;
8421;SDS011;4248;48.196;10.924;2023-04-29T14:53:00;8.70;;;1.20;;
8421;SDS011;4248;48.196;10.924;2023-04-29T14:55:26;6.20;;;1.00;;
8421;SDS011;4248;48.196;10.924;2023-04-29T14:57:52;2.23;;;1.17;;
8421;SDS011;4248;48.196;10.924;2023-04-29T15:00:17;2.87;;;1.27;;
8421;SDS011;4248;48.196;10.924;2023-04-29T15:02:43;3.10;;;1.13;;
8421;SDS011;4248;48.196;10.924;2023-04-29T15:05:09;1.97;;;0.97;;
8421;SDS011;4248;48.196;10.924;2023-04-29T15:07:34;2.70;;;1.20;;
8421;SDS011;4248;48.196;10.924;2023-04-29T15:10:00;4.30;;;2.50;;
8421;SDS011;4248;48.196;10.924;2023-04-29T15:12:26;2.83;;;1.40;;
8421;SDS011;4248;48.196;10.924;2023-04-29T15:14:51;5.20;;;1.67;;
8421;SDS011;4248;48.196;10.924;2023-04-29T15:17:17;3.30;;;1.47;;
8421;SDS011;4248;48.196;10.924;2023-04-29T15:19:43;2.80;;;1.60;;
8421;SDS011;4248;48.196;10.924;2023-04-29T15:22:09;3.57;;;1.50;;
8421;SDS011;4248;48.196;10.924;2023-04-29T15:24:35;7.73;;;1.40;;
8421;SDS011;4248;48.196;10.924;2023-04-29T15:27:01;3.43;;;1.80;;
8421;SDS011;4248;48.196;10.924;2023-04-29T15:29:27;2.80;;;1.60;;
8421;SDS011;4248;48.196;10.924;2023-04-29T15:31:53;3.50;;;1.70;;
8421;SDS011;4248;48.196;10.924;2023-04-29T15:34:19;5.40;;;2.07;;
8421;SDS011;4248;48.196;10.924;2023-04-29T15:36:45;2.23;;;1.33;;